AirNav   Bose Proflight Series 2 Wireless Aviation Headset
 
 1188 users online  

3UT6 Riverton Hospital Heliport
Riverton, Utah, USA

GOING TO RIVERTON?


FAA INFORMATION EFFECTIVE 07 NOVEMBER 2019

Location

FAA Identifier: 3UT6
Lat/Long: 40-31-12.0700N 111-58-53.8200W
40-31.201167N 111-58.897000W
40.5200194,-111.9816167
(estimated)
Elevation: 4638 ft. / 1414 m (estimated)
From city: 2 miles E of RIVERTON, UT
Time zone: UTC -7 (UTC -6 during Daylight Saving Time)
Zip code: 84065

Heliport Operations

Heliport use: Private use. Permission required prior to landing
Activation date: 04/2012
Control tower: no
ARTCC: SALT LAKE CITY CENTER
FSS: CEDAR CITY FLIGHT SERVICE STATION
Attendance: UNATNDD
Wind indicator: yes
Segmented circle: no

Heliport Communications

WX AWOS-3 at U42 (6 nm N): 134.425 (801-562-0271)
WX ASOS at SLC (16 nm N): PHONE 801-328-3567
WX AWOS-3 at TVY (18 nm W): 119.725 (435-882-6648)

Nearby radio navigation aids

VOR radial/distance  VOR name  Freq  Var
FFUr337/14.8FAIRFIELD VORTAC116.6016E
TCHr164/19.8WASATCH VORTAC116.8016E
PVUr312/21.8PROVO VOR/DME108.4015E

Heliport Services

Runway Information

Helipad H1

Dimensions: 40 x 40 ft. / 12 x 12 m
Surface: concrete
Latitude: 40-31.201167N
Longitude: 111-58.897000W
Elevation: 4638.0 ft.
Traffic pattern: leftleft
Obstructions: bldg
70 FT BLDG 250 FT EAST OF PAD.

Heliport Ownership and Management from official FAA records

Ownership: Privately-owned
Owner: IHC HEALTH SERVICES INC
36 SOUTH STATE ST
SALT LAKE CITY, UT 84111
Phone 801-442-2000
Manager: KENT JOHNSON
250 N 2370 W
SALT LAKE CITY, UT 84116
Phone (801) 321-3362

Additional Remarks

FOR CD CTC SALT LAKE CITY APCH AT 801-325-9670.

Instrument Procedures

There are no published instrument procedures at 3UT6.

Some nearby airports with instrument procedures:

U42 - South Valley Regional Airport (6 nm N)
KSLC - Salt Lake City International Airport (16 nm N)
KTVY - Bolinder Field-Tooele Valley Airport (18 nm W)
KPVU - Provo Municipal Airport (22 nm SE)
KHCR - Heber Valley Airport (25 nm E)
 
Loc | Ops | Rwys | IFR | FBO | Links
Com | Nav | Svcs | Stats | Notes
Aerial photo
No photo
 
Airport distance calculator
Flying to Riverton Hospital Heliport? Find the distance to fly.

From to 3UT6

Sunrise and sunset
Times for 15-Nov-2019
 Local
(UTC-7)
 Zulu
(UTC)
Morning civil twilight06:4613:46
Sunrise07:1514:15
Sunset17:1000:10
Evening civil twilight17:3900:39

Current date and time
Zulu (UTC)  15-Nov-2019 20:50:33
Local (UTC-7)  15-Nov-2019 13:50:33
 
METAR
KU42 
6nm N 
152035Z AUTO 00000KT 10SM CLR 17/03 A3013 RMK AO1 T01720032
KSLC 
16nm N 
151954Z 33004KT 10SM SCT140 BKN190 16/01 A3014 RMK AO2 SLP186 CCSL E-SE ACSL DSNT NE-SE T01610006
KTVY 
18nm W 
152035Z AUTO 36004KT 10SM CLR 12/01 A3014 RMK AO2
TAF
KSLC 
16nm N 
151732Z 1518/1624 33006KT P6SM BKN200 FM160300 15003KT P6SM SCT120 BKN150 FM161800 34006KT P6SM SCT070 SCT120
NOTAMs
Click for the latest NOTAMs
NOTAMs are issued by the DoD/FAA and will open in a separate window not controlled by AirNav.

 

 
 

Would you like to see your business listed on this page?

 If your business provides an interesting product or service to pilots, flight crews, aircraft, or users of the Riverton Hospital Heliport, you should consider listing it here.  To start the listing process, click on the button below
 
Add a business
 

Other Pages about Riverton Hospital Heliport

Update a link
 
Copyright © AirNav, LLC. All rights reserved. Privacy Policy  Contact